Time;durP1;ratioP1;P1;durP2;ratioP2;P2;SDS_P1;SDS_P2;PMS_P1;PMS_P2;Temp;Humidity;BMP_temperature;BMP_pressure;BME280_temperature;BME280_humidity;BME280_pressure;Samples;Min_cycle;Max_cycle;Signal;HPM_P1;HPM_P2
2021/08/19 00:01:02;;;;;;;19.35;6.88;;;26.70;97.40;;;;;;5064561;28;20305;-50
2021/08/19 00:03:28;;;;;;;21.52;7.65;;;26.70;97.50;;;;;;5068160;28;20210;-49
2021/08/19 00:05:55;;;;;;;17.60;8.20;;;26.60;97.40;;;;;;5073508;28;20204;-48
2021/08/19 00:08:22;;;;;;;25.02;7.38;;;26.70;97.30;;;;;;5078325;28;20021;-52
2021/08/19 00:10:48;;;;;;;21.33;7.75;;;26.60;97.30;;;;;;5072330;28;20291;-47
2021/08/19 00:13:17;;;;;;;21.92;6.90;;;26.60;97.20;;;;;;5065647;28;20017;-49
2021/08/19 00:15:43;;;;;;;19.88;7.43;;;26.60;97.20;;;;;;5071870;28;20267;-47
2021/08/19 00:18:13;;;;;;;31.17;10.30;;;26.60;97.30;;;;;;5079973;28;20061;-53
2021/08/19 00:20:41;;;;;;;56.97;14.70;;;26.60;97.40;;;;;;5084855;28;20329;-46
2021/08/19 00:23:08;;;;;;;74.95;16.55;;;26.60;97.50;;;;;;5084609;28;20023;-49
2021/08/19 00:25:36;;;;;;;39.75;15.07;;;26.60;97.50;;;;;;5085092;28;20056;-54
2021/08/19 00:28:04;;;;;;;27.35;12.00;;;26.50;97.60;;;;;;5074702;28;20085;-47
2021/08/19 00:30:31;;;;;;;22.40;10.20;;;26.50;97.60;;;;;;5062284;28;20041;-55
2021/08/19 00:32:57;;;;;;;19.52;10.50;;;26.50;97.50;;;;;;5063948;28;20033;-50
2021/08/19 00:35:24;;;;;;;19.35;11.50;;;26.40;97.30;;;;;;5064969;28;20025;-50
2021/08/19 00:37:50;;;;;;;20.20;10.98;;;26.40;97.30;;;;;;5063719;28;20017;-45
2021/08/19 00:40:18;;;;;;;20.27;10.32;;;26.40;97.30;;;;;;5064743;28;20209;-49
2021/08/19 00:42:45;;;;;;;17.52;10.32;;;26.40;97.30;;;;;;5063856;28;20013;-49
2021/08/19 00:45:12;;;;;;;16.70;9.38;;;26.40;97.30;;;;;;5064640;28;20029;-48
2021/08/19 00:47:40;;;;;;;20.50;9.70;;;26.40;97.30;;;;;;5064129;28;20021;-48
2021/08/19 00:50:08;;;;;;;15.13;9.18;;;26.40;97.20;;;;;;5064541;28;20029;-50
2021/08/19 00:52:36;;;;;;;20.10;11.13;;;26.50;97.30;;;;;;5064296;28;20061;-50
2021/08/19 00:55:04;;;;;;;17.85;11.00;;;26.50;97.30;;;;;;5064595;28;20031;-46
2021/08/19 00:57:31;;;;;;;19.92;11.00;;;26.40;97.10;;;;;;5064099;28;20020;-44
2021/08/19 00:59:59;;;;;;;17.85;9.70;;;26.50;97.20;;;;;;5064126;28;20318;-50
2021/08/19 01:02:26;;;;;;;14.82;8.65;;;26.40;97.10;;;;;;5063916;28;20021;-46
2021/08/19 01:04:54;;;;;;;15.30;7.93;;;26.40;97.10;;;;;;5064156;28;20025;-60
2021/08/19 01:07:21;;;;;;;12.93;7.43;;;26.40;97.10;;;;;;5064055;28;20020;-55
2021/08/19 01:09:48;;;;;;;14.90;6.07;;;26.40;97.10;;;;;;5062701;28;20048;-57
2021/08/19 01:12:15;;;;;;;11.77;5.90;;;26.40;97.20;;;;;;5064230;28;20024;-54
2021/08/19 01:14:46;;;;;;;12.82;6.03;;;26.40;97.10;;;;;;5063575;28;20033;-53
2021/08/19 01:17:15;;;;;;;9.93;5.70;;;26.40;97.10;;;;;;5063681;28;20016;-57
2021/08/19 01:19:51;;;;;;;9.30;4.35;;;26.40;97.20;;;;;;5063763;28;20032;-57
2021/08/19 01:22:18;;;;;;;14.23;5.13;;;26.40;97.20;;;;;;5063378;28;20016;-60
2021/08/19 01:24:45;;;;;;;12.20;5.07;;;26.40;97.20;;;;;;5064060;28;20032;-55
2021/08/19 01:27:22;;;;;;;10.50;5.90;;;26.40;97.20;;;;;;5063143;28;20017;-52
2021/08/19 01:29:51;;;;;;;10.50;5.40;;;26.40;97.30;;;;;;5062616;28;20305;-52
2021/08/19 01:32:18;;;;;;;12.98;5.55;;;26.40;97.30;;;;;;5063819;28;20025;-54
2021/08/19 01:34:45;;;;;;;13.13;5.65;;;26.40;97.30;;;;;;5063994;28;20033;-54
2021/08/19 01:37:13;;;;;;;11.38;4.78;;;26.40;97.30;;;;;;5063470;28;20020;-55
2021/08/19 01:39:40;;;;;;;8.93;5.30;;;26.30;97.20;;;;;;5063817;28;20024;-50
2021/08/19 01:42:07;;;;;;;13.20;5.72;;;26.30;97.30;;;;;;5063633;28;20017;-53
2021/08/19 01:44:34;;;;;;;14.20;5.40;;;26.30;97.30;;;;;;5063183;28;20033;-52
2021/08/19 01:47:02;;;;;;;12.35;4.63;;;26.30;97.30;;;;;;5063745;28;20025;-52
2021/08/19 01:49:35;;;;;;;12.38;4.10;;;26.30;97.30;;;;;;5063776;28;20259;-54
2021/08/19 01:52:05;;;;;;;9.75;3.95;;;26.30;97.30;;;;;;5063550;28;20067;-52
2021/08/19 01:54:32;;;;;;;15.20;3.80;;;26.30;97.30;;;;;;5063599;28;20309;-50
2021/08/19 01:56:59;;;;;;;10.32;3.20;;;26.30;97.40;;;;;;5063199;28;20021;-48
2021/08/19 01:59:29;;;;;;;10.85;2.95;;;26.30;97.30;;;;;;5063488;28;20309;-52
2021/08/19 02:01:57;;;;;;;7.03;2.45;;;26.30;97.40;;;;;;5063512;28;20032;-49
2021/08/19 02:04:24;;;;;;;11.07;2.85;;;26.30;97.40;;;;;;5063419;28;20088;-49
2021/08/19 02:06:51;;;;;;;7.93;2.40;;;26.30;97.40;;;;;;5063247;28;20072;-56
2021/08/19 02:09:18;;;;;;;10.30;2.65;;;26.30;97.40;;;;;;5063645;28;20369;-51
2021/08/19 02:11:44;;;;;;;13.07;2.30;;;26.30;97.30;;;;;;5063092;28;20053;-56
2021/08/19 02:14:12;;;;;;;11.63;2.70;;;26.30;97.40;;;;;;5063420;28;20066;-55
2021/08/19 02:16:39;;;;;;;5.88;2.67;;;26.30;97.40;;;;;;5063078;28;20221;-58
2021/08/19 02:19:05;;;;;;;10.02;2.80;;;26.30;97.40;;;;;;5063034;28;20021;-54
2021/08/19 02:21:32;;;;;;;10.18;3.05;;;26.30;97.30;;;;;;5063381;28;20020;-50
2021/08/19 02:23:59;;;;;;;10.50;3.60;;;26.30;97.40;;;;;;5063225;28;20240;-55
2021/08/19 02:26:25;;;;;;;9.13;4.60;;;26.30;97.40;;;;;;5063280;28;20025;-58
2021/08/19 02:28:52;;;;;;;11.18;4.28;;;26.30;97.40;;;;;;5063158;28;20075;-52
2021/08/19 02:31:19;;;;;;;9.60;4.70;;;26.30;97.40;;;;;;5062016;28;20227;-55
2021/08/19 02:33:45;;;;;;;7.90;3.90;;;26.30;97.40;;;;;;5062961;28;20025;-52
2021/08/19 02:36:12;;;;;;;14.13;3.95;;;26.30;97.50;;;;;;5062973;28;20316;-54
2021/08/19 02:38:39;;;;;;;10.50;3.40;;;26.30;97.40;;;;;;5066317;28;20021;-59
2021/08/19 02:41:05;;;;;;;8.30;2.80;;;26.30;97.30;;;;;;5066971;28;20373;-55
2021/08/19 02:43:34;;;;;;;8.30;2.95;;;26.30;97.30;;;;;;5067156;28;20040;-47
2021/08/19 02:46:00;;;;;;;8.20;2.83;;;26.20;97.30;;;;;;5066537;28;20028;-52
2021/08/19 02:48:27;;;;;;;12.60;3.08;;;26.20;97.30;;;;;;5066652;28;20044;-59
2021/08/19 02:50:54;;;;;;;8.77;2.50;;;26.20;97.30;;;;;;5066908;28;20024;-56
2021/08/19 02:53:20;;;;;;;10.90;2.60;;;26.20;97.30;;;;;;5066479;28;20332;-57
2021/08/19 02:55:47;;;;;;;8.02;2.42;;;26.20;97.30;;;;;;5064953;28;20218;-59
2021/08/19 02:58:13;;;;;;;11.68;2.38;;;26.20;97.30;;;;;;5065405;28;20021;-58
2021/08/19 03:00:40;;;;;;;13.77;2.42;;;26.20;97.20;;;;;;5066591;28;20305;-55
2021/08/19 03:03:07;;;;;;;8.25;2.13;;;26.20;97.10;;;;;;5065973;28;20111;-57
2021/08/19 03:05:33;;;;;;;8.18;1.90;;;26.20;96.90;;;;;;5066261;28;20097;-59
2021/08/19 03:08:00;;;;;;;11.80;2.20;;;26.20;96.80;;;;;;5066264;28;20028;-53
2021/08/19 03:10:26;;;;;;;7.43;1.98;;;26.20;96.70;;;;;;5066624;28;20029;-54
2021/08/19 03:12:53;;;;;;;5.38;1.38;;;26.10;96.60;;;;;;5065954;28;20023;-54
2021/08/19 03:15:19;;;;;;;7.32;1.30;;;26.20;96.50;;;;;;5066464;28;20057;-55
2021/08/19 03:17:46;;;;;;;9.60;1.58;;;26.10;96.30;;;;;;5066047;28;20102;-55
2021/08/19 03:20:13;;;;;;;12.65;1.45;;;26.10;96.20;;;;;;5066315;28;20048;-58
2021/08/19 03:22:40;;;;;;;6.07;1.40;;;26.10;96.20;;;;;;5065971;28;20025;-55
2021/08/19 03:25:08;;;;;;;7.88;1.30;;;26.10;96.10;;;;;;5066309;28;20024;-55
2021/08/19 03:27:35;;;;;;;4.82;1.25;;;26.10;96.00;;;;;;5065665;28;20017;-57
2021/08/19 03:30:02;;;;;;;10.63;1.45;;;26.10;96.00;;;;;;5065701;28;20224;-57
2021/08/19 03:32:29;;;;;;;12.50;1.30;;;26.10;95.90;;;;;;5065740;28;20025;-54
2021/08/19 03:34:56;;;;;;;9.60;1.02;;;26.10;95.90;;;;;;5065852;28;20070;-54
2021/08/19 03:37:24;;;;;;;6.45;1.20;;;26.00;95.90;;;;;;5065695;28;20017;-54
2021/08/19 03:39:51;;;;;;;6.13;1.45;;;26.00;95.80;;;;;;5065855;28;20025;-54
2021/08/19 03:42:18;;;;;;;7.78;1.10;;;26.00;95.70;;;;;;5065341;28;20017;-55
2021/08/19 03:44:44;;;;;;;5.05;0.95;;;26.00;95.60;;;;;;5080075;28;20031;-55
2021/08/19 03:47:11;;;;;;;3.15;0.82;;;26.00;95.60;;;;;;5085666;28;20364;-57
2021/08/19 03:49:38;;;;;;;6.35;1.17;;;26.00;95.50;;;;;;5084454;28;20028;-55
2021/08/19 03:52:05;;;;;;;5.22;1.10;;;26.00;95.50;;;;;;5085612;28;20336;-52
2021/08/19 03:54:31;;;;;;;7.43;1.27;;;26.00;95.50;;;;;;5068980;28;20355;-57
2021/08/19 03:57:01;;;;;;;7.00;1.15;;;26.00;95.60;;;;;;5065140;28;20212;-55
2021/08/19 03:59:28;;;;;;;8.57;1.33;;;26.00;95.60;;;;;;5064974;28;20029;-59
2021/08/19 04:01:55;;;;;;;9.50;1.52;;;26.00;95.50;;;;;;5064911;28;20017;-57
2021/08/19 04:04:21;;;;;;;8.75;1.55;;;26.00;95.60;;;;;;5069525;28;20039;-58
2021/08/19 04:06:48;;;;;;;8.77;1.63;;;26.00;95.50;;;;;;5064925;28;20088;-54
2021/08/19 04:09:14;;;;;;;6.97;1.55;;;26.00;95.50;;;;;;5064702;28;20036;-59
2021/08/19 04:11:41;;;;;;;7.00;1.50;;;26.00;95.50;;;;;;5064691;28;20340;-54
2021/08/19 04:14:07;;;;;;;11.93;1.30;;;26.00;95.60;;;;;;5064621;28;20107;-64
2021/08/19 04:16:34;;;;;;;4.30;1.13;;;26.00;95.60;;;;;;5064647;28;20052;-57
2021/08/19 04:19:01;;;;;;;6.40;1.77;;;26.00;95.50;;;;;;5064438;28;20047;-60
2021/08/19 04:21:28;;;;;;;11.93;5.82;;;25.90;95.60;;;;;;5064569;28;20083;-57
2021/08/19 04:23:54;;;;;;;14.27;6.80;;;26.00;95.70;;;;;;5064177;28;20205;-56
2021/08/19 04:26:21;;;;;;;19.02;10.93;;;25.90;95.60;;;;;;5064491;28;20205;-59
2021/08/19 04:28:47;;;;;;;19.73;12.23;;;25.90;95.60;;;;;;5064056;28;20021;-52
2021/08/19 04:31:14;;;;;;;18.23;11.10;;;25.90;95.60;;;;;;5064518;28;20024;-47
2021/08/19 04:33:41;;;;;;;16.95;9.65;;;25.90;95.60;;;;;;5064542;28;20122;-56
2021/08/19 04:36:07;;;;;;;14.18;7.20;;;25.90;95.60;;;;;;5064304;28;20025;-55
2021/08/19 04:38:34;;;;;;;17.95;6.68;;;25.90;95.60;;;;;;5063925;28;20024;-55
2021/08/19 04:41:01;;;;;;;16.73;6.85;;;25.90;95.60;;;;;;5064498;28;20348;-57
2021/08/19 04:43:29;;;;;;;31.30;19.67;;;25.90;95.70;;;;;;5064213;28;20021;-59
2021/08/19 04:45:56;;;;;;;33.22;21.08;;;25.90;95.70;;;;;;5064969;28;20020;-54
2021/08/19 04:48:22;;;;;;;27.15;14.38;;;25.90;95.70;;;;;;5064162;28;20317;-55
2021/08/19 04:50:49;;;;;;;20.23;12.55;;;25.80;95.70;;;;;;5064750;28;20024;-57
2021/08/19 04:53:16;;;;;;;16.50;9.55;;;25.80;95.80;;;;;;5063796;28;20017;-60
2021/08/19 04:55:42;;;;;;;16.75;11.02;;;25.80;95.80;;;;;;5063362;28;20025;-59
2021/08/19 04:58:09;;;;;;;16.67;10.18;;;25.80;95.90;;;;;;5063663;28;20084;-59
2021/08/19 05:00:37;;;;;;;11.23;8.15;;;25.80;95.90;;;;;;5063812;28;20076;-53
2021/08/19 05:03:04;;;;;;;11.20;6.70;;;25.80;95.80;;;;;;5063923;28;20044;-53
2021/08/19 05:05:30;;;;;;;9.80;4.95;;;25.80;95.80;;;;;;5064420;28;20080;-54
2021/08/19 05:07:58;;;;;;;12.02;4.80;;;25.70;95.70;;;;;;5063577;28;20067;-57
2021/08/19 05:10:25;;;;;;;9.73;4.25;;;25.80;95.80;;;;;;5064275;28;20129;-60
2021/08/19 05:12:51;;;;;;;14.95;4.10;;;25.70;95.70;;;;;;5063711;28;20025;-55
2021/08/19 05:15:18;;;;;;;11.50;3.40;;;25.70;95.60;;;;;;5063576;28;20332;-56
2021/08/19 05:17:45;;;;;;;8.85;3.10;;;25.70;95.60;;;;;;5063703;28;20029;-58
2021/08/19 05:20:12;;;;;;;10.38;2.60;;;25.70;95.60;;;;;;5063993;28;20053;-53
2021/08/19 05:22:39;;;;;;;11.07;2.60;;;25.70;95.60;;;;;;5063695;28;20027;-57
2021/08/19 05:25:06;;;;;;;9.77;2.15;;;25.70;95.60;;;;;;5063385;28;20032;-52
2021/08/19 05:27:33;;;;;;;13.25;2.40;;;25.70;95.60;;;;;;5063779;28;20044;-56
2021/08/19 05:30:00;;;;;;;8.82;2.20;;;25.70;95.70;;;;;;5062655;28;20313;-54
2021/08/19 05:32:26;;;;;;;7.82;1.73;;;25.80;95.80;;;;;;5063613;28;20024;-52
2021/08/19 05:34:53;;;;;;;7.35;1.90;;;25.70;95.80;;;;;;5063916;28;20025;-53
2021/08/19 05:37:20;;;;;;;8.07;1.70;;;25.70;95.80;;;;;;5063543;28;20021;-54
2021/08/19 05:39:46;;;;;;;7.05;1.30;;;25.70;95.80;;;;;;5063875;28;20020;-52
2021/08/19 05:42:13;;;;;;;9.35;1.67;;;25.70;95.80;;;;;;5063551;28;20021;-53
2021/08/19 05:44:40;;;;;;;10.10;1.50;;;25.70;95.90;;;;;;5063876;28;20021;-49
2021/08/19 05:47:07;;;;;;;8.07;1.55;;;25.70;95.90;;;;;;5063641;28;20041;-52
2021/08/19 05:49:45;;;;;;;5.75;1.50;;;25.70;96.00;;;;;;5063600;28;20084;-58
2021/08/19 05:52:12;;;;;;;9.30;1.98;;;25.70;96.20;;;;;;5063772;28;20078;-53
2021/08/19 05:54:39;;;;;;;6.28;1.50;;;25.70;96.00;;;;;;5063024;28;20025;-52
2021/08/19 05:57:06;;;;;;;13.55;1.98;;;25.70;96.00;;;;;;5063317;28;20104;-52
2021/08/19 05:59:32;;;;;;;11.95;1.63;;;25.70;96.10;;;;;;5063797;28;20033;-51
2021/08/19 06:01:59;;;;;;;7.97;1.10;;;25.70;96.10;;;;;;5063727;28;20025;-51
2021/08/19 06:04:25;;;;;;;7.57;1.25;;;25.70;96.00;;;;;;5063533;28;20064;-55
2021/08/19 06:06:52;;;;;;;8.38;1.67;;;25.70;96.00;;;;;;5063404;28;20209;-52
2021/08/19 06:09:19;;;;;;;10.30;1.35;;;25.70;96.00;;;;;;5063748;28;20248;-49
2021/08/19 06:11:45;;;;;;;7.75;1.40;;;25.70;96.10;;;;;;5063598;28;20066;-50
2021/08/19 06:14:12;;;;;;;9.90;1.40;;;25.70;96.10;;;;;;5067437;28;20056;-60
2021/08/19 06:16:38;;;;;;;7.20;1.10;;;25.70;96.10;;;;;;5067382;28;20203;-58
2021/08/19 06:19:05;;;;;;;7.18;1.08;;;25.70;96.10;;;;;;5067095;28;20040;-51
2021/08/19 06:21:31;;;;;;;10.88;1.40;;;25.70;96.00;;;;;;5067191;28;20044;-54
2021/08/19 06:23:58;;;;;;;9.70;1.50;;;25.70;96.00;;;;;;5067243;28;20028;-51
2021/08/19 06:26:26;;;;;;;9.60;1.20;;;25.70;96.10;;;;;;5066993;28;20325;-51
2021/08/19 06:28:53;;;;;;;4.97;1.10;;;25.70;96.10;;;;;;5067050;28;20048;-52
2021/08/19 06:31:19;;;;;;;10.98;1.52;;;25.70;96.10;;;;;;5067058;28;20016;-51
2021/08/19 06:33:46;;;;;;;10.65;1.27;;;25.70;96.10;;;;;;5066836;28;20364;-49
2021/08/19 06:36:12;;;;;;;9.70;1.20;;;25.70;96.20;;;;;;5066793;28;20021;-50
2021/08/19 06:38:39;;;;;;;11.82;1.52;;;25.70;96.20;;;;;;5066974;28;20040;-53
2021/08/19 06:41:06;;;;;;;10.05;1.25;;;25.70;96.20;;;;;;5066851;28;20321;-62
2021/08/19 06:43:32;;;;;;;10.43;1.30;;;25.70;96.30;;;;;;5066640;28;20033;-60
2021/08/19 06:45:59;;;;;;;10.95;1.50;;;25.60;96.40;;;;;;5066791;28;20027;-56
2021/08/19 06:48:25;;;;;;;10.35;1.63;;;25.60;96.40;;;;;;5066771;28;20024;-54
2021/08/19 06:50:52;;;;;;;15.23;1.55;;;25.60;96.40;;;;;;5067055;28;20063;-53
2021/08/19 06:53:19;;;;;;;8.75;1.17;;;25.60;96.30;;;;;;5066855;28;20087;-49
2021/08/19 06:55:45;;;;;;;9.50;1.13;;;25.60;96.30;;;;;;5067054;28;20158;-55
2021/08/19 06:58:12;;;;;;;7.40;1.30;;;25.60;96.30;;;;;;5066564;28;20221;-51
2021/08/19 07:00:38;;;;;;;16.83;2.00;;;25.60;96.30;;;;;;5066931;28;20021;-56
2021/08/19 07:03:05;;;;;;;13.30;1.65;;;25.60;96.20;;;;;;5066496;28;20209;-54
2021/08/19 07:05:31;;;;;;;9.68;1.23;;;25.60;96.20;;;;;;5066675;28;20200;-57
2021/08/19 07:07:59;;;;;;;16.02;1.50;;;25.60;96.20;;;;;;5066402;28;20021;-59
2021/08/19 07:10:26;;;;;;;12.27;1.85;;;25.60;96.20;;;;;;5066665;28;20079;-52
2021/08/19 07:12:53;;;;;;;6.20;1.02;;;25.60;96.20;;;;;;5066096;28;20084;-56
2021/08/19 07:15:19;;;;;;;11.45;1.30;;;25.60;96.30;;;;;;5066355;28;20080;-49
2021/08/19 07:17:46;;;;;;;9.88;1.60;;;25.60;96.20;;;;;;5066144;28;20090;-54
2021/08/19 07:20:13;;;;;;;7.40;1.10;;;25.50;96.20;;;;;;5066406;28;20029;-51
2021/08/19 07:22:44;;;;;;;10.13;1.90;;;25.50;96.20;;;;;;5066076;28;20016;-51
2021/08/19 07:25:15;;;;;;;11.20;1.30;;;25.50;96.10;;;;;;5065232;28;20213;-58
2021/08/19 07:27:42;;;;;;;9.02;1.40;;;25.60;96.20;;;;;;5065874;28;20047;-51
2021/08/19 07:30:11;;;;;;;10.10;1.60;;;25.50;96.10;;;;;;5065893;28;20051;-53
2021/08/19 07:32:37;;;;;;;7.20;1.23;;;25.60;96.10;;;;;;5065878;28;20017;-50
2021/08/19 07:35:05;;;;;;;10.23;1.35;;;25.50;96.10;;;;;;5066230;28;20178;-53
2021/08/19 07:37:31;;;;;;;6.90;1.23;;;25.50;96.00;;;;;;5065827;28;20263;-52
2021/08/19 07:39:58;;;;;;;7.75;1.35;;;25.50;96.00;;;;;;5066009;28;20021;-56
2021/08/19 07:42:25;;;;;;;12.73;1.67;;;25.50;96.10;;;;;;5065618;28;20013;-52
2021/08/19 07:44:51;;;;;;;8.98;1.23;;;25.50;96.00;;;;;;5065895;28;20025;-52
2021/08/19 07:47:20;;;;;;;7.78;1.05;;;25.50;95.90;;;;;;5065685;28;20017;-56
2021/08/19 07:49:47;;;;;;;8.55;1.38;;;25.50;95.90;;;;;;5065608;28;20090;-51
2021/08/19 07:52:14;;;;;;;7.18;1.20;;;25.50;95.90;;;;;;5065505;28;20032;-53
2021/08/19 07:54:40;;;;;;;9.02;1.45;;;25.50;95.80;;;;;;5065771;28;20029;-53
2021/08/19 07:57:07;;;;;;;9.38;2.03;;;25.50;95.70;;;;;;5065256;28;20217;-53
2021/08/19 07:59:33;;;;;;;10.35;2.13;;;25.50;95.70;;;;;;5065592;28;20028;-53
2021/08/19 08:02:00;;;;;;;8.02;1.98;;;25.50;95.80;;;;;;5065378;28;20079;-54
2021/08/19 08:04:26;;;;;;;9.18;1.88;;;25.50;95.80;;;;;;5065206;28;20052;-49
2021/08/19 08:06:53;;;;;;;6.20;1.58;;;25.50;95.90;;;;;;5065266;28;20025;-55
2021/08/19 08:09:19;;;;;;;11.25;1.85;;;25.50;95.90;;;;;;5065276;28;20036;-51
2021/08/19 08:11:46;;;;;;;9.45;1.90;;;25.50;95.90;;;;;;5064953;28;20020;-52
2021/08/19 08:14:13;;;;;;;9.13;2.03;;;25.50;95.90;;;;;;5065351;28;20032;-53
2021/08/19 08:16:39;;;;;;;8.90;1.40;;;25.50;96.00;;;;;;5064764;28;20045;-53
2021/08/19 08:19:07;;;;;;;10.20;1.70;;;25.50;95.90;;;;;;5064946;28;20048;-55
2021/08/19 08:21:36;;;;;;;9.70;1.73;;;25.50;96.00;;;;;;5065012;28;20012;-62
2021/08/19 08:24:04;;;;;;;6.97;1.40;;;25.50;96.00;;;;;;5064895;28;20025;-50
2021/08/19 08:26:30;;;;;;;9.52;1.50;;;25.40;96.00;;;;;;5064189;28;20256;-46
2021/08/19 08:28:58;;;;;;;10.68;1.80;;;25.40;96.10;;;;;;5064949;28;20033;-52
2021/08/19 08:31:24;;;;;;;12.35;1.63;;;25.50;96.20;;;;;;5064864;28;20203;-59
2021/08/19 08:33:51;;;;;;;5.57;1.50;;;25.40;96.10;;;;;;5064310;28;20025;-59
2021/08/19 08:36:18;;;;;;;9.75;1.50;;;25.40;96.20;;;;;;5063745;28;20020;-53
2021/08/19 08:38:45;;;;;;;12.18;1.50;;;25.40;96.20;;;;;;5064640;28;20225;-53
2021/08/19 08:41:12;;;;;;;8.60;1.50;;;25.50;96.30;;;;;;5064518;28;20350;-60
2021/08/19 08:43:40;;;;;;;9.63;1.52;;;25.40;96.30;;;;;;5064287;28;20024;-62
2021/08/19 08:46:10;;;;;;;8.25;1.40;;;25.40;96.40;;;;;;5064184;28;20089;-53
2021/08/19 08:48:38;;;;;;;8.35;1.58;;;25.40;96.50;;;;;;5064044;28;20360;-52
2021/08/19 08:51:05;;;;;;;7.00;1.33;;;25.30;96.40;;;;;;5064147;28;20020;-59
2021/08/19 08:53:31;;;;;;;8.05;1.33;;;25.40;96.40;;;;;;5064308;28;20040;-60
2021/08/19 08:55:58;;;;;;;9.30;1.60;;;25.40;96.40;;;;;;5063891;28;20020;-52
2021/08/19 08:58:25;;;;;;;9.45;1.80;;;25.40;96.40;;;;;;5064027;28;20029;-53
2021/08/19 09:00:51;;;;;;;12.93;1.80;;;25.30;96.40;;;;;;5064527;28;20020;-61
2021/08/19 09:03:19;;;;;;;10.98;1.48;;;25.30;96.50;;;;;;5064012;28;20017;-56
2021/08/19 09:05:48;;;;;;;9.25;1.40;;;25.30;96.50;;;;;;5064289;28;20305;-51
2021/08/19 09:08:17;;;;;;;9.05;1.33;;;25.30;96.60;;;;;;5064312;28;20020;-59
2021/08/19 09:10:45;;;;;;;12.63;1.60;;;25.30;96.60;;;;;;5064167;28;20049;-51
2021/08/19 09:13:15;;;;;;;8.23;1.20;;;25.30;96.60;;;;;;5063752;28;20025;-49
2021/08/19 09:15:44;;;;;;;6.88;1.30;;;25.30;96.60;;;;;;5063871;28;20052;-57
2021/08/19 09:18:11;;;;;;;5.85;1.10;;;25.30;96.60;;;;;;5063490;28;20047;-57
2021/08/19 09:20:41;;;;;;;6.82;1.30;;;25.30;96.60;;;;;;5064263;28;20032;-52
2021/08/19 09:23:13;;;;;;;8.27;1.60;;;25.30;96.60;;;;;;5063625;28;20028;-56
2021/08/19 09:25:41;;;;;;;;;;;25.30;96.60;;;;;;5064547;28;20049;-53
2021/08/19 09:28:26;;;;;;;5.93;1.55;;;25.30;96.70;;;;;;5063870;28;20172;-52
2021/08/19 09:30:59;;;;;;;8.32;1.45;;;25.30;96.90;;;;;;5064254;28;20039;-55
2021/08/19 09:33:30;;;;;;;7.57;1.48;;;25.30;96.70;;;;;;5063556;28;20016;-55
2021/08/19 09:36:06;;;;;;;11.13;1.50;;;25.30;96.70;;;;;;5063413;28;20029;-57
2021/08/19 09:38:41;;;;;;;10.10;1.70;;;25.30;96.80;;;;;;5063302;28;20048;-51
2021/08/19 09:41:11;;;;;;;6.07;1.50;;;25.30;96.80;;;;;;5063398;28;20021;-54
2021/08/19 09:43:52;;;;;;;5.65;1.17;;;25.30;96.80;;;;;;5063321;28;20092;-52
2021/08/19 09:46:38;;;;;;;10.55;1.55;;;25.30;96.80;;;;;;5063455;28;20029;-55
2021/08/19 09:49:25;;;;;;;8.10;1.50;;;25.30;96.80;;;;;;5067619;28;20021;-52
2021/08/19 09:52:13;;;;;;;10.75;1.65;;;25.30;96.80;;;;;;5067728;28;20043;-51
2021/08/19 09:54:41;;;;;;;9.00;1.58;;;25.30;96.80;;;;;;5067776;28;20021;-56
2021/08/19 09:57:09;;;;;;;13.23;1.35;;;25.20;96.80;;;;;;5067359;28;20088;-52
2021/08/19 09:59:40;;;;;;;7.35;1.60;;;25.20;96.80;;;;;;5067732;28;20050;-54
2021/08/19 10:02:09;;;;;;;5.38;1.17;;;25.20;96.70;;;;;;5067457;28;20076;-55
2021/08/19 10:04:37;;;;;;;11.10;1.70;;;25.20;96.70;;;;;;5067557;28;20025;-55
2021/08/19 10:07:04;;;;;;;9.80;1.55;;;25.20;96.70;;;;;;5067301;28;20059;-52
2021/08/19 10:09:31;;;;;;;13.48;1.73;;;25.20;96.70;;;;;;5067277;28;20040;-55
2021/08/19 10:11:59;;;;;;;9.50;1.50;;;25.20;96.80;;;;;;5067082;28;20221;-54
2021/08/19 10:14:28;;;;;;;8.50;1.60;;;25.20;96.90;;;;;;5067449;28;20241;-53
2021/08/19 10:16:56;;;;;;;8.88;1.65;;;25.20;96.90;;;;;;5066749;28;20113;-58
2021/08/19 10:19:36;;;;;;;6.50;1.50;;;25.20;96.90;;;;;;5066975;28;20036;-53
2021/08/19 10:22:06;;;;;;;8.88;1.50;;;25.20;96.90;;;;;;5067327;28;20036;-52
2021/08/19 10:24:36;;;;;;;12.43;1.48;;;25.10;96.90;;;;;;5067015;28;20052;-53
2021/08/19 10:27:24;;;;;;;6.93;1.35;;;25.10;96.90;;;;;;5066834;28;20070;-58
2021/08/19 10:29:54;;;;;;;12.48;1.73;;;25.10;97.00;;;;;;5067145;28;20060;-52
2021/08/19 10:32:40;;;;;;;11.68;2.00;;;25.10;97.00;;;;;;5066479;28;20055;-58
2021/08/19 10:35:15;;;;;;;13.30;2.00;;;25.10;96.90;;;;;;5067088;28;20037;-53
2021/08/19 10:37:47;;;;;;;10.52;2.33;;;25.10;96.90;;;;;;5066689;28;20036;-56
2021/08/19 10:40:24;;;;;;;12.10;2.20;;;25.10;97.00;;;;;;5066607;28;20016;-53
2021/08/19 10:43:19;;;;;;;11.57;2.00;;;25.10;97.00;;;;;;5066926;28;20194;-63
2021/08/19 10:45:46;;;;;;;12.80;1.98;;;25.10;97.00;;;;;;5066387;28;20348;-57
2021/08/19 10:48:12;;;;;;;10.35;2.10;;;25.10;97.00;;;;;;5066320;28;20024;-55
2021/08/19 10:50:41;;;;;;;9.68;1.80;;;25.10;97.10;;;;;;5066931;28;20053;-61
2021/08/19 10:53:15;;;;;;;11.93;2.10;;;25.10;97.10;;;;;;5066330;28;20096;-53
2021/08/19 10:55:42;;;;;;;7.63;2.17;;;25.10;97.10;;;;;;5066908;28;20032;-54
2021/08/19 10:58:27;;;;;;;7.65;2.25;;;25.10;97.20;;;;;;5065933;28;20194;-53
2021/08/19 11:01:02;;;;;;;13.60;2.53;;;25.10;97.20;;;;;;5066618;28;20013;-52
2021/08/19 11:03:37;;;;;;;8.82;2.47;;;25.10;97.20;;;;;;5066133;28;20045;-53
2021/08/19 11:06:10;;;;;;;13.68;2.65;;;25.10;97.30;;;;;;5065876;28;20025;-53
2021/08/19 11:08:46;;;;;;;8.48;2.50;;;25.20;97.30;;;;;;5066027;28;20016;-56
2021/08/19 11:11:26;;;;;;;12.73;2.70;;;25.10;97.30;;;;;;5066281;28;20051;-57
2021/08/19 11:14:18;;;;;;;10.18;2.35;;;25.20;97.40;;;;;;5066057;28;20040;-58
2021/08/19 11:16:55;;;;;;;7.93;2.00;;;25.20;97.30;;;;;;5065911;28;20048;-53
2021/08/19 11:19:23;;;;;;;14.23;3.70;;;25.30;97.30;;;;;;5066126;28;20024;-57
2021/08/19 11:21:58;;;;;;;12.35;3.40;;;25.30;97.30;;;;;;5065924;28;20084;-53
2021/08/19 11:24:26;;;;;;;23.08;10.52;;;25.30;97.30;;;;;;5065912;28;20021;-61
2021/08/19 11:27:07;;;;;;;23.42;11.68;;;26.10;96.60;;;;;;5065965;28;20244;-56
2021/08/19 11:29:44;;;;;;;19.95;8.13;;;26.60;95.50;;;;;;5065944;28;20035;-54
2021/08/19 11:32:16;;;;;;;18.38;5.18;;;27.10;94.70;;;;;;5065906;28;20028;-53
2021/08/19 11:34:49;;;;;;;13.82;3.78;;;27.50;93.90;;;;;;5066010;28;20024;-56
2021/08/19 11:37:33;;;;;;;12.10;3.83;;;27.80;93.20;;;;;;5065702;28;20033;-55
2021/08/19 11:40:00;;;;;;;17.75;4.10;;;28.00;92.90;;;;;;5065959;28;20080;-59
2021/08/19 11:42:31;;;;;;;12.52;3.10;;;28.10;92.80;;;;;;5065975;28;20059;-56
2021/08/19 11:45:21;;;;;;;10.90;3.28;;;28.50;92.30;;;;;;5065912;28;20017;-53
2021/08/19 11:47:49;;;;;;;10.70;2.80;;;28.20;92.10;;;;;;5065617;28;20272;-59
2021/08/19 11:50:21;;;;;;;11.50;2.53;;;27.70;92.80;;;;;;5065954;28;20025;-57
2021/08/19 11:52:48;;;;;;;9.88;2.53;;;27.30;93.30;;;;;;5065433;28;20024;-57
2021/08/19 11:55:30;;;;;;;10.30;2.38;;;27.00;93.80;;;;;;5065975;28;20028;-55
2021/08/19 11:58:17;;;;;;;11.77;2.08;;;26.90;94.20;;;;;;5064602;28;20115;-57
2021/08/19 12:00:57;;;;;;;6.72;2.13;;;26.60;94.40;;;;;;5065819;28;20024;-53
2021/08/19 12:03:25;;;;;;;10.55;2.40;;;26.50;94.70;;;;;;5065113;28;20322;-53
2021/08/19 12:06:19;;;;;;;8.95;2.70;;;26.40;94.70;;;;;;5065682;28;20347;-55
2021/08/19 12:08:54;;;;;;;10.68;2.72;;;26.40;94.70;;;;;;5062801;28;20079;-51
2021/08/19 12:11:26;;;;;;;10.93;3.63;;;26.50;94.80;;;;;;5064251;28;20052;-49
2021/08/19 12:13:53;;;;;;;24.05;8.90;;;26.60;94.80;;;;;;5064881;28;20037;-52
2021/08/19 12:16:22;;;;;;;14.70;5.47;;;26.60;94.60;;;;;;5064682;28;20044;-52
2021/08/19 12:19:10;;;;;;;17.75;3.20;;;26.70;94.80;;;;;;5062782;28;20013;-58
2021/08/19 12:21:39;;;;;;;10.55;2.78;;;26.70;94.70;;;;;;5062426;28;20017;-62
2021/08/19 12:24:14;;;;;;;8.63;2.05;;;26.70;94.60;;;;;;5084387;28;20036;-52
2021/08/19 12:26:41;;;;;;;14.52;2.42;;;26.70;94.80;;;;;;5084152;28;20084;-50
2021/08/19 12:29:17;;;;;;;9.60;2.00;;;26.70;94.70;;;;;;5084655;28;20035;-51
2021/08/19 12:31:46;;;;;;;10.57;2.35;;;26.60;94.50;;;;;;5081617;28;20079;-51
2021/08/19 12:34:12;;;;;;;8.65;2.13;;;26.60;94.80;;;;;;5064681;28;20209;-52
2021/08/19 12:36:39;;;;;;;9.82;2.10;;;26.50;94.80;;;;;;5064401;28;20017;-49
2021/08/19 12:39:28;;;;;;;13.23;3.30;;;26.50;94.60;;;;;;5064599;28;20036;-49
2021/08/19 12:42:10;;;;;;;10.65;4.60;;;26.50;94.70;;;;;;5063871;28;20051;-48
2021/08/19 12:44:37;;;;;;;12.30;3.90;;;26.40;94.90;;;;;;5064506;28;20073;-50
2021/08/19 12:47:04;;;;;;;6.25;2.55;;;26.40;95.10;;;;;;5064396;28;20021;-67
2021/08/19 12:49:34;;;;;;;10.35;2.75;;;26.40;95.30;;;;;;5064470;28;20262;-50